Time;durP1;ratioP1;P1;durP2;ratioP2;P2;SDS_P1;SDS_P2;PMS_P1;PMS_P2;Temp;Humidity;BMP_temperature;BMP_pressure;BME280_temperature;BME280_humidity;BME280_pressure;Samples;Min_cycle;Max_cycle;Signal;HPM_P1;HPM_P2
2023/07/04 00:01:41;;;;;;;4.55;2.03;;;19.40;83.10;;;;;;4937002;29;20027;-78
2023/07/04 00:04:07;;;;;;;5.07;2.20;;;19.30;83.10;;;;;;4948631;29;20031;-79
2023/07/04 00:06:36;;;;;;;5.05;2.30;;;19.30;83.20;;;;;;4948891;29;20047;-81
2023/07/04 00:09:04;;;;;;;6.35;2.45;;;19.30;83.20;;;;;;4929385;29;20023;-81
2023/07/04 00:11:31;;;;;;;4.32;2.05;;;19.30;83.20;;;;;;4913125;29;20131;-80
2023/07/04 00:13:56;;;;;;;5.38;2.53;;;19.30;83.20;;;;;;4929631;29;20404;-81
2023/07/04 00:16:22;;;;;;;3.75;1.92;;;19.20;83.30;;;;;;4913085;29;20024;-80
2023/07/04 00:18:47;;;;;;;5.97;2.58;;;19.20;83.30;;;;;;4913225;28;20079;-80
2023/07/04 00:21:16;;;;;;;4.10;2.08;;;19.20;83.30;;;;;;4930830;29;20051;-80
2023/07/04 00:23:45;;;;;;;4.65;2.40;;;19.20;83.50;;;;;;4930907;29;20035;-80
2023/07/04 00:26:12;;;;;;;4.43;2.03;;;19.20;83.50;;;;;;4945410;29;20035;-80
2023/07/04 00:28:38;;;;;;;5.10;2.53;;;19.20;83.40;;;;;;4936736;28;20092;-82
2023/07/04 00:31:05;;;;;;;5.75;2.70;;;19.20;83.40;;;;;;4935878;29;20051;-81
2023/07/04 00:33:31;;;;;;;4.95;2.13;;;19.20;83.40;;;;;;4952178;29;20138;-80
2023/07/04 00:36:00;;;;;;;5.60;2.10;;;19.20;83.90;;;;;;4949687;29;20062;-82
2023/07/04 00:38:26;;;;;;;5.32;2.30;;;19.20;83.40;;;;;;4951452;29;20396;-81
2023/07/04 00:40:54;;;;;;;5.78;2.30;;;19.20;83.50;;;;;;4939815;29;20595;-81
2023/07/04 00:43:21;;;;;;;4.88;2.30;;;19.20;83.40;;;;;;4933693;29;20475;-80
2023/07/04 00:45:55;;;;;;;4.57;2.13;;;19.20;83.40;;;;;;4931902;29;20071;-80
2023/07/04 00:48:22;;;;;;;5.00;2.03;;;19.20;83.40;;;;;;4932002;29;20409;-80
2023/07/04 00:50:49;;;;;;;4.88;2.10;;;19.10;83.40;;;;;;4950243;28;20419;-81
2023/07/04 00:53:16;;;;;;;4.63;2.20;;;19.20;83.30;;;;;;4951777;29;20030;-81
2023/07/04 00:55:49;;;;;;;5.25;2.30;;;19.20;83.40;;;;;;4950995;29;20118;-79
2023/07/04 00:58:15;;;;;;;6.18;2.28;;;19.20;83.40;;;;;;4933830;29;20050;-81
2023/07/04 01:00:42;;;;;;;4.25;2.00;;;19.20;83.50;;;;;;4951350;29;20035;-79
2023/07/04 01:03:12;;;;;;;5.38;2.22;;;19.20;83.50;;;;;;4934136;29;20488;-81
2023/07/04 01:05:51;;;;;;;4.82;2.22;;;19.20;83.50;;;;;;4934409;29;20105;-80
2023/07/04 01:08:56;;;;;;;5.70;2.10;;;19.20;83.40;;;;;;4950670;28;20031;-81
2023/07/04 01:11:29;;;;;;;5.18;2.15;;;19.20;83.40;;;;;;4885245;29;20079;-79
2023/07/04 01:13:55;;;;;;;4.22;1.98;;;19.30;83.40;;;;;;4943016;29;20039;-81
2023/07/04 01:16:22;;;;;;;4.50;1.92;;;19.30;83.40;;;;;;4940022;29;20031;-80
2023/07/04 01:18:51;;;;;;;5.13;2.30;;;19.30;83.40;;;;;;4939382;29;20035;-82
2023/07/04 01:21:20;;;;;;;4.18;1.80;;;19.30;83.40;;;;;;4952615;29;20047;-82
2023/07/04 01:24:08;;;;;;;3.95;1.80;;;19.30;83.30;;;;;;4936331;29;20035;-82
2023/07/04 01:26:42;;;;;;;6.65;2.30;;;19.30;83.30;;;;;;4948463;29;20086;-81
2023/07/04 01:29:11;;;;;;;4.45;2.00;;;19.30;83.20;;;;;;4938819;29;20023;-81
2023/07/04 01:31:37;;;;;;;4.28;1.63;;;19.30;83.30;;;;;;4951973;29;20083;-82
2023/07/04 01:34:04;;;;;;;4.32;1.88;;;19.30;83.30;;;;;;4936443;29;20039;-79
2023/07/04 01:36:33;;;;;;;4.65;2.03;;;19.30;83.20;;;;;;4936379;29;20071;-80
2023/07/04 01:38:59;;;;;;;4.20;1.80;;;19.30;83.30;;;;;;4936483;28;20038;-80
2023/07/04 01:41:25;;;;;;;4.68;2.20;;;19.30;83.20;;;;;;4965559;28;20027;-82
2023/07/04 01:44:07;;;;;;;5.18;2.42;;;19.30;83.30;;;;;;4937714;29;20477;-79
2023/07/04 01:46:34;;;;;;;4.57;2.10;;;19.20;83.40;;;;;;4954231;29;20099;-80
2023/07/04 01:49:00;;;;;;;3.67;1.90;;;19.20;83.40;;;;;;4937177;29;20035;-82
2023/07/04 01:51:29;;;;;;;3.85;1.88;;;19.20;83.40;;;;;;4952806;29;20035;-82
2023/07/04 01:53:56;;;;;;;4.50;2.13;;;19.20;83.60;;;;;;4935165;29;20055;-80
2023/07/04 01:56:22;;;;;;;4.32;2.03;;;19.20;83.60;;;;;;4948410;29;20114;-80
2023/07/04 01:58:47;;;;;;;4.72;2.05;;;19.20;83.70;;;;;;4952369;28;20161;-81
2023/07/04 02:01:13;;;;;;;5.18;2.00;;;19.20;83.60;;;;;;4953993;29;20086;-78
2023/07/04 02:03:39;;;;;;;4.30;1.90;;;19.20;84.10;;;;;;4935939;29;20031;-81
2023/07/04 02:06:05;;;;;;;4.28;1.90;;;19.20;83.70;;;;;;4936565;29;20035;-79
2023/07/04 02:08:31;;;;;;;4.22;1.70;;;19.20;83.70;;;;;;4954290;28;20043;-81
2023/07/04 02:10:56;;;;;;;3.72;1.90;;;19.20;83.60;;;;;;4946324;29;20027;-78
2023/07/04 02:13:22;;;;;;;4.53;1.90;;;19.20;83.50;;;;;;4951806;29;20019;-80
2023/07/04 02:15:48;;;;;;;3.25;1.70;;;19.20;83.50;;;;;;4935289;29;20381;-78
2023/07/04 02:18:13;;;;;;;3.78;1.70;;;19.20;83.50;;;;;;4935287;29;20519;-78
2023/07/04 02:20:39;;;;;;;4.03;1.80;;;19.10;83.40;;;;;;4935848;29;20031;-78
2023/07/04 02:23:04;;;;;;;2.78;1.50;;;19.20;83.40;;;;;;4951324;29;20077;-79
2023/07/04 02:25:30;;;;;;;2.85;1.60;;;19.20;83.40;;;;;;4934821;29;20830;-78
2023/07/04 02:27:55;;;;;;;3.42;1.60;;;19.20;83.50;;;;;;4951652;29;20045;-79
2023/07/04 02:30:20;;;;;;;4.03;1.83;;;19.20;83.50;;;;;;4950261;28;20094;-80
2023/07/04 02:32:46;;;;;;;4.72;2.08;;;19.10;83.40;;;;;;4935326;29;20114;-81
2023/07/04 02:35:14;;;;;;;3.30;1.75;;;19.10;83.50;;;;;;4951723;29;20031;-81
2023/07/04 02:37:39;;;;;;;3.50;1.60;;;19.10;83.50;;;;;;4934435;29;20031;-82
2023/07/04 02:40:05;;;;;;;3.17;1.60;;;19.20;83.30;;;;;;4938408;28;20042;-78
2023/07/04 02:42:31;;;;;;;3.72;1.80;;;19.20;83.40;;;;;;4938931;29;20087;-81
2023/07/04 02:44:56;;;;;;;4.15;1.63;;;19.20;83.40;;;;;;4937149;29;20224;-79
2023/07/04 02:47:26;;;;;;;3.60;1.60;;;19.20;83.40;;;;;;4952207;29;20023;-81
2023/07/04 02:49:52;;;;;;;3.22;1.75;;;19.20;83.50;;;;;;4937110;28;20030;-80
2023/07/04 02:52:19;;;;;;;2.97;1.52;;;19.20;83.40;;;;;;4926414;29;20122;-78
2023/07/04 02:54:45;;;;;;;3.00;1.60;;;19.20;83.30;;;;;;4930727;29;20031;-78
2023/07/04 02:57:13;;;;;;;3.58;1.33;;;19.30;83.30;;;;;;4940285;29;20369;-79
2023/07/04 02:59:39;;;;;;;2.97;1.50;;;19.30;83.30;;;;;;4940748;28;20034;-79
2023/07/04 03:02:05;;;;;;;3.92;1.75;;;19.30;83.20;;;;;;4953098;28;20041;-79
2023/07/04 03:04:30;;;;;;;3.90;1.70;;;19.30;83.20;;;;;;4948121;29;20102;-79
2023/07/04 03:06:57;;;;;;;3.80;1.60;;;19.30;83.10;;;;;;4933866;29;20046;-79
2023/07/04 03:09:23;;;;;;;4.50;1.70;;;19.20;83.00;;;;;;4933506;29;20126;-79
2023/07/04 03:11:48;;;;;;;3.17;1.55;;;19.20;83.00;;;;;;4950819;29;20396;-79
2023/07/04 03:14:14;;;;;;;3.63;1.55;;;19.20;83.00;;;;;;4933876;29;20042;-80
2023/07/04 03:16:39;;;;;;;3.17;1.50;;;19.20;83.20;;;;;;4950787;29;20480;-80
2023/07/04 03:19:05;;;;;;;3.95;1.70;;;19.20;83.20;;;;;;4950144;29;20251;-78
2023/07/04 03:21:30;;;;;;;3.47;1.52;;;19.20;83.20;;;;;;4934814;29;20031;-82
2023/07/04 03:23:56;;;;;;;3.35;1.50;;;19.20;83.10;;;;;;4936869;29;20027;-80
2023/07/04 03:26:21;;;;;;;3.10;1.65;;;19.20;83.30;;;;;;4951633;29;20038;-81
2023/07/04 03:28:47;;;;;;;4.22;1.73;;;19.20;83.40;;;;;;4935948;29;20534;-81
2023/07/04 03:31:12;;;;;;;3.50;1.48;;;19.20;83.50;;;;;;4953736;29;20504;-82
2023/07/04 03:33:38;;;;;;;3.45;1.60;;;19.20;83.60;;;;;;4954651;29;20121;-81
2023/07/04 03:36:05;;;;;;;4.40;1.88;;;19.10;83.50;;;;;;4936231;29;20023;-82
2023/07/04 04:04:17;;;;;;;3.70;1.52;;;19.10;83.60;;;;;;5010738;28;20065;-79
2023/07/04 04:06:43;;;;;;;2.33;1.35;;;19.10;83.60;;;;;;4995241;28;20033;-82
2023/07/04 04:09:10;;;;;;;2.60;1.38;;;19.10;83.60;;;;;;4995509;28;20030;-81
2023/07/04 04:11:36;;;;;;;2.35;1.40;;;19.10;83.50;;;;;;4994855;28;20026;-83
2023/07/04 04:14:01;;;;;;;3.10;1.30;;;19.10;83.50;;;;;;4975256;28;20036;-78
2023/07/04 04:16:27;;;;;;;1.90;1.10;;;19.20;83.40;;;;;;4972864;28;20030;-79
2023/07/04 04:18:52;;;;;;;1.95;1.20;;;19.20;83.30;;;;;;4973376;28;20037;-79
2023/07/04 04:21:18;;;;;;;2.78;1.30;;;19.20;83.50;;;;;;4991503;28;20540;-81
2023/07/04 04:23:44;;;;;;;3.20;1.55;;;19.20;83.50;;;;;;4996029;28;20080;-83
2023/07/04 04:26:12;;;;;;;2.50;1.35;;;19.20;83.40;;;;;;4994225;28;20073;-81
2023/07/04 04:28:37;;;;;;;2.17;1.20;;;19.30;83.80;;;;;;4994507;28;20042;-82
2023/07/04 04:31:03;;;;;;;2.88;1.30;;;19.20;83.50;;;;;;4993255;28;20348;-83
2023/07/04 04:33:28;;;;;;;3.50;1.50;;;19.20;83.40;;;;;;4992362;28;20036;-80
2023/07/04 04:35:54;;;;;;;2.92;1.50;;;19.20;83.30;;;;;;4992903;28;20081;-83
2023/07/04 04:38:19;;;;;;;3.75;1.50;;;19.20;83.30;;;;;;4993555;28;20022;-80
2023/07/04 04:40:45;;;;;;;3.05;1.48;;;19.20;83.50;;;;;;4978064;28;20547;-82
2023/07/04 04:43:11;;;;;;;3.70;1.40;;;19.20;83.10;;;;;;4998947;28;20027;-82
2023/07/04 04:45:38;;;;;;;3.00;1.45;;;19.20;83.30;;;;;;4975648;28;20030;-83
2023/07/04 04:48:06;;;;;;;3.45;1.50;;;19.20;83.30;;;;;;4995222;28;20475;-78
2023/07/04 04:50:32;;;;;;;3.20;1.20;;;19.20;83.40;;;;;;4995350;28;20061;-82
2023/07/04 04:52:59;;;;;;;3.25;1.30;;;19.10;83.30;;;;;;5013434;28;20034;-83
2023/07/04 04:55:25;;;;;;;2.72;1.30;;;19.20;83.50;;;;;;4995679;28;20030;-83
2023/07/04 04:57:51;;;;;;;2.60;1.30;;;19.10;83.60;;;;;;5008236;28;20524;-82
2023/07/04 05:00:17;;;;;;;3.38;1.58;;;19.10;83.30;;;;;;4986608;23;20043;-83
2023/07/04 05:02:44;;;;;;;3.05;1.40;;;19.10;83.60;;;;;;4957835;28;20070;-83
2023/07/04 05:05:10;;;;;;;2.95;1.30;;;19.10;83.50;;;;;;4956559;29;20039;-82
2023/07/04 05:07:36;;;;;;;3.42;1.35;;;19.10;83.50;;;;;;4956485;29;20054;-85
2023/07/04 05:10:02;;;;;;;2.63;1.30;;;19.10;83.50;;;;;;4953999;29;20034;-86
2023/07/04 05:12:28;;;;;;;2.30;1.27;;;19.10;83.60;;;;;;4955622;28;20063;-82
2023/07/04 05:14:53;;;;;;;2.88;1.25;;;19.10;83.50;;;;;;4956090;29;20054;-83
2023/07/04 05:17:19;;;;;;;3.53;1.35;;;19.10;83.50;;;;;;4957322;28;20443;-83
2023/07/04 05:19:49;;;;;;;4.88;1.45;;;19.10;83.60;;;;;;4942129;28;20520;-82
2023/07/04 05:22:15;;;;;;;3.17;1.30;;;19.10;83.50;;;;;;4936172;29;20054;-84
2023/07/04 05:24:40;;;;;;;3.47;1.50;;;19.10;83.60;;;;;;4935744;29;20024;-82
2023/07/04 05:27:07;;;;;;;3.22;1.50;;;19.10;83.50;;;;;;4953702;29;20472;-82
2023/07/04 05:29:32;;;;;;;3.22;1.38;;;19.10;83.40;;;;;;4955058;28;20038;-83
2023/07/04 05:31:58;;;;;;;4.93;1.50;;;19.10;83.40;;;;;;4998510;23;20054;-82
2023/07/04 05:34:23;;;;;;;2.83;1.30;;;19.10;83.90;;;;;;4977463;28;20056;-81
2023/07/04 05:36:49;;;;;;;5.03;1.40;;;19.10;83.30;;;;;;4979861;28;20038;-82
2023/07/04 05:39:14;;;;;;;2.83;1.42;;;19.10;83.10;;;;;;4997684;28;20037;-81
2023/07/04 05:41:40;;;;;;;4.57;1.60;;;19.10;83.10;;;;;;4982957;28;20030;-81
2023/07/04 05:44:07;;;;;;;2.80;1.30;;;19.10;83.30;;;;;;4987048;28;20072;-82
2023/07/04 05:46:34;;;;;;;3.60;1.38;;;19.10;83.20;;;;;;4996915;28;20026;-81
2023/07/04 05:49:00;;;;;;;2.95;1.52;;;19.20;83.20;;;;;;4997570;28;20161;-82
2023/07/04 05:51:26;;;;;;;2.88;1.35;;;19.20;83.00;;;;;;4997323;28;20113;-83
2023/07/04 05:53:53;;;;;;;3.40;1.15;;;19.20;83.10;;;;;;4997336;28;20030;-80
2023/07/04 05:56:21;;;;;;;4.07;1.30;;;19.20;83.00;;;;;;4997015;28;20171;-81
2023/07/04 05:58:49;;;;;;;2.75;1.27;;;19.20;82.90;;;;;;4996599;28;20033;-82
2023/07/04 06:01:21;;;;;;;3.90;1.20;;;19.20;82.90;;;;;;4997210;28;20026;-81
2023/07/04 06:03:47;;;;;;;3.58;1.23;;;19.20;82.80;;;;;;4997308;28;20026;-82
2023/07/04 06:06:22;;;;;;;2.97;1.30;;;19.20;82.60;;;;;;4993522;28;20022;-81
2023/07/04 06:08:49;;;;;;;3.58;1.48;;;19.30;82.60;;;;;;4993969;28;20026;-82
2023/07/04 06:11:15;;;;;;;3.65;1.67;;;19.30;82.60;;;;;;4995636;28;20408;-80
2023/07/04 06:13:41;;;;;;;3.67;1.33;;;19.30;82.40;;;;;;4997227;28;20022;-82
2023/07/04 06:16:07;;;;;;;2.10;1.17;;;19.30;82.20;;;;;;4997042;28;20041;-82
2023/07/04 06:18:34;;;;;;;2.25;1.23;;;19.30;82.20;;;;;;4996857;28;20026;-83
2023/07/04 06:21:11;;;;;;;2.67;1.45;;;19.30;82.20;;;;;;5014369;28;20100;-81
2023/07/04 06:23:37;;;;;;;3.22;1.33;;;19.30;82.50;;;;;;4996757;28;20025;-83
2023/07/04 06:26:03;;;;;;;3.22;1.38;;;19.20;82.60;;;;;;4996703;28;20030;-80
2023/07/04 06:28:29;;;;;;;1.85;1.00;;;19.20;82.80;;;;;;4996538;28;20032;-82
2023/07/04 06:30:55;;;;;;;2.88;1.20;;;19.20;82.90;;;;;;4996513;28;20108;-82
2023/07/04 06:33:20;;;;;;;3.83;1.30;;;19.20;82.80;;;;;;4978220;28;20458;-81
2023/07/04 06:35:46;;;;;;;2.65;1.38;;;19.20;82.90;;;;;;4977193;28;20031;-82
2023/07/04 06:38:11;;;;;;;2.97;1.20;;;19.20;83.00;;;;;;4977027;28;20022;-83
2023/07/04 06:40:37;;;;;;;2.42;1.10;;;19.20;83.10;;;;;;4994779;28;20442;-81
2023/07/04 06:43:04;;;;;;;3.35;1.50;;;19.20;83.10;;;;;;5010547;28;20479;-82
2023/07/04 06:45:33;;;;;;;2.60;1.30;;;19.20;83.10;;;;;;5013861;28;20071;-81
2023/07/04 06:47:59;;;;;;;2.70;1.42;;;19.20;83.10;;;;;;4996565;28;20471;-82
2023/07/04 06:50:25;;;;;;;2.00;1.10;;;19.20;83.00;;;;;;4996330;28;20022;-82
2023/07/04 06:52:51;;;;;;;2.28;1.02;;;19.20;83.10;;;;;;4996177;28;20025;-82
2023/07/04 06:55:16;;;;;;;2.47;1.05;;;19.20;83.10;;;;;;4988519;28;20030;-81
2023/07/04 06:57:43;;;;;;;2.40;1.15;;;19.20;83.00;;;;;;4976531;28;20022;-83
2023/07/04 07:00:09;;;;;;;2.05;1.20;;;19.20;83.00;;;;;;4994267;28;20065;-81
2023/07/04 07:02:34;;;;;;;2.83;1.13;;;19.30;83.00;;;;;;5006220;28;20062;-80
2023/07/04 07:05:00;;;;;;;2.47;1.10;;;19.30;82.90;;;;;;5013854;28;20482;-82
2023/07/04 07:07:25;;;;;;;3.47;1.30;;;19.30;82.90;;;;;;4995930;28;20025;-82
2023/07/04 07:09:51;;;;;;;2.38;1.20;;;19.40;82.90;;;;;;4995644;28;20113;-82
2023/07/04 07:12:16;;;;;;;3.03;1.20;;;19.30;82.70;;;;;;4995194;28;20033;-83
2023/07/04 07:14:42;;;;;;;2.85;1.20;;;19.30;82.70;;;;;;4995909;28;20018;-83
2023/07/04 07:17:08;;;;;;;2.05;1.25;;;19.40;82.70;;;;;;4995567;28;20014;-83
2023/07/04 07:19:33;;;;;;;1.77;0.98;;;19.40;82.60;;;;;;4995780;28;20080;-82
2023/07/04 07:22:00;;;;;;;1.98;1.10;;;19.40;82.70;;;;;;4992303;28;20027;-82
2023/07/04 07:24:29;;;;;;;4.07;1.33;;;19.40;82.50;;;;;;4993758;28;20027;-81
2023/07/04 07:26:54;;;;;;;2.25;1.00;;;19.50;82.40;;;;;;4992360;28;20054;-83
2023/07/04 07:29:20;;;;;;;2.35;1.15;;;19.50;82.30;;;;;;4995741;28;20072;-81
2023/07/04 07:31:47;;;;;;;1.60;0.90;;;19.50;82.20;;;;;;5012828;28;20041;-81
2023/07/04 07:34:13;;;;;;;1.77;1.10;;;19.50;82.00;;;;;;4995475;28;20469;-83
2023/07/04 07:36:42;;;;;;;2.53;1.30;;;19.60;82.00;;;;;;4995457;28;20030;-83
2023/07/04 07:39:10;;;;;;;2.33;1.23;;;19.60;81.80;;;;;;5012979;28;20051;-82
2023/07/04 07:41:39;;;;;;;1.60;0.90;;;19.60;81.80;;;;;;4995260;28;20026;-82
2023/07/04 07:44:05;;;;;;;1.60;1.10;;;19.60;81.80;;;;;;4995388;28;20057;-83
2023/07/04 07:46:31;;;;;;;2.47;1.10;;;19.60;81.90;;;;;;4995131;28;20076;-83
2023/07/04 07:48:57;;;;;;;1.80;1.00;;;19.60;81.80;;;;;;5012915;28;20053;-83
2023/07/04 07:51:23;;;;;;;2.00;1.13;;;19.60;82.00;;;;;;4995276;28;20072;-82
2023/07/04 07:53:50;;;;;;;2.10;1.05;;;19.60;82.10;;;;;;4995279;28;20026;-83
2023/07/04 07:56:21;;;;;;;1.77;1.02;;;19.60;82.20;;;;;;4994956;28;20029;-82
2023/07/04 07:58:47;;;;;;;;;;;19.50;82.00;;;;;;4995625;28;20058;-81
2023/07/04 08:01:29;;;;;;;1.38;1.00;;;19.50;82.10;;;;;;4995124;28;20387;-82
2023/07/04 08:03:55;;;;;;;2.05;1.10;;;19.50;82.30;;;;;;4995189;28;20025;-82
2023/07/04 08:06:22;;;;;;;2.55;1.10;;;19.50;82.40;;;;;;5012468;28;20118;-81
2023/07/04 08:08:47;;;;;;;3.08;1.20;;;19.50;82.50;;;;;;4995191;28;20064;-82
2023/07/04 08:11:13;;;;;;;2.45;1.20;;;19.50;82.60;;;;;;4994898;28;20026;-82
2023/07/04 08:13:40;;;;;;;3.72;1.10;;;19.50;82.70;;;;;;4995074;28;20108;-82
2023/07/04 08:16:05;;;;;;;2.45;1.20;;;19.50;82.60;;;;;;4995059;28;20098;-82
2023/07/04 08:18:30;;;;;;;2.22;1.13;;;19.50;82.50;;;;;;4994868;28;20038;-81
2023/07/04 08:20:58;;;;;;;2.38;1.10;;;19.50;82.40;;;;;;4994988;28;20145;-82
2023/07/04 08:23:24;;;;;;;2.08;1.10;;;19.60;82.50;;;;;;4994939;28;20168;-81
2023/07/04 08:25:50;;;;;;;2.28;1.10;;;19.50;82.50;;;;;;4995735;28;20109;-82
2023/07/04 08:28:15;;;;;;;2.03;1.10;;;19.50;82.60;;;;;;4998914;28;20021;-83
2023/07/04 08:30:41;;;;;;;1.60;1.13;;;19.50;82.60;;;;;;4998986;28;20032;-81
2023/07/04 08:33:07;;;;;;;2.40;1.17;;;19.50;82.70;;;;;;5016161;28;20029;-83
2023/07/04 08:35:32;;;;;;;2.20;1.17;;;19.50;82.70;;;;;;4998847;28;20398;-82
2023/07/04 08:37:58;;;;;;;2.83;1.20;;;19.50;82.70;;;;;;4998656;28;20471;-82
2023/07/04 08:40:23;;;;;;;2.42;1.30;;;19.50;82.60;;;;;;4998884;28;20033;-83
2023/07/04 08:42:49;;;;;;;2.33;0.90;;;19.50;82.40;;;;;;4985597;28;20089;-82
2023/07/04 08:45:24;;;;;;;3.60;1.40;;;19.50;82.30;;;;;;4995289;28;20438;-82
2023/07/04 08:47:51;;;;;;;2.20;1.00;;;19.60;82.20;;;;;;4996344;28;20018;-82
2023/07/04 08:50:31;;;;;;;2.15;1.08;;;19.60;82.10;;;;;;4979181;28;20022;-83
2023/07/04 08:53:05;;;;;;;1.70;1.00;;;19.60;82.20;;;;;;4995136;28;20018;-82
2023/07/04 08:55:34;;;;;;;2.80;1.35;;;19.60;82.30;;;;;;4996319;28;20084;-83
2023/07/04 08:58:04;;;;;;;2.20;1.08;;;19.60;82.20;;;;;;4978654;28;20030;-82
2023/07/04 09:00:42;;;;;;;2.28;1.02;;;19.60;82.20;;;;;;4996324;28;20031;-83
2023/07/04 09:03:39;;;;;;;2.05;1.10;;;19.60;82.10;;;;;;4993909;28;20061;-82
2023/07/04 09:06:12;;;;;;;1.92;1.00;;;19.70;82.00;;;;;;5016015;28;20029;-81
2023/07/04 09:09:02;;;;;;;2.08;1.17;;;19.70;81.90;;;;;;4998941;28;20101;-83
2023/07/04 09:11:28;;;;;;;2.17;1.20;;;19.70;81.80;;;;;;4983853;28;20396;-81
2023/07/04 09:14:04;;;;;;;2.70;1.20;;;19.70;81.80;;;;;;4994767;28;20114;-83
2023/07/04 09:16:39;;;;;;;1.55;0.98;;;19.70;81.80;;;;;;4995996;28;20022;-82
2023/07/04 09:19:07;;;;;;;1.52;1.00;;;19.80;82.20;;;;;;4994863;28;20027;-82
2023/07/04 09:21:33;;;;;;;0.95;0.82;;;19.80;81.60;;;;;;4996843;28;20027;-82
2023/07/04 09:24:01;;;;;;;1.98;1.10;;;19.80;81.50;;;;;;4998064;28;20030;-82
2023/07/04 09:26:52;;;;;;;2.15;1.27;;;19.90;81.90;;;;;;4999179;28;20026;-82
2023/07/04 09:29:22;;;;;;;2.13;0.98;;;19.90;81.40;;;;;;4994821;28;20065;-82
2023/07/04 09:32:00;;;;;;;2.53;1.15;;;19.90;82.00;;;;;;4978713;28;20034;-82
2023/07/04 09:34:52;;;;;;;2.78;1.10;;;19.80;81.50;;;;;;4977210;28;20080;-81
2023/07/04 09:37:22;;;;;;;2.22;1.02;;;19.80;81.70;;;;;;4978063;28;20383;-81
2023/07/04 09:39:49;;;;;;;2.20;1.00;;;19.80;81.70;;;;;;4984967;28;20033;-84
2023/07/04 09:42:17;;;;;;;2.20;1.10;;;19.80;81.70;;;;;;4978101;28;20083;-84
2023/07/04 09:44:43;;;;;;;2.22;1.02;;;19.80;81.70;;;;;;4995720;28;20045;-82
2023/07/04 09:47:20;;;;;;;2.60;1.20;;;19.80;81.80;;;;;;5013488;28;20479;-82
2023/07/04 09:49:45;;;;;;;2.30;0.90;;;19.80;81.80;;;;;;5015105;28;20030;-82
2023/07/04 09:52:21;;;;;;;2.35;1.20;;;19.80;81.80;;;;;;4997329;28;20368;-82
2023/07/04 09:55:16;;;;;;;2.33;1.20;;;19.80;81.90;;;;;;4997447;28;20661;-82
2023/07/04 09:57:44;;;;;;;2.33;1.20;;;19.80;81.90;;;;;;4997247;28;20029;-83
2023/07/04 10:00:28;;;;;;;1.92;1.00;;;19.80;81.90;;;;;;4997324;28;20018;-80
2023/07/04 10:02:56;;;;;;;2.00;1.08;;;19.80;81.90;;;;;;5014676;28;20029;-82
2023/07/04 10:05:32;;;;;;;2.13;1.10;;;19.80;81.90;;;;;;4997036;28;20026;-82
2023/07/04 10:08:00;;;;;;;1.85;1.00;;;19.80;81.90;;;;;;4993638;28;20487;-82
2023/07/04 10:10:26;;;;;;;3.13;1.02;;;19.80;81.80;;;;;;4993821;28;20026;-81
2023/07/04 10:12:51;;;;;;;2.22;1.20;;;19.80;81.80;;;;;;4997127;28;20550;-82
2023/07/04 10:15:25;;;;;;;2.65;1.10;;;19.80;81.70;;;;;;5014730;28;20133;-81
2023/07/04 10:17:51;;;;;;;3.42;1.42;;;19.80;81.70;;;;;;4996921;28;20030;-83
2023/07/04 10:20:16;;;;;;;2.55;1.20;;;19.80;81.60;;;;;;5014406;28;20041;-81
2023/07/04 10:22:49;;;;;;;2.65;1.33;;;19.80;81.60;;;;;;4996983;28;20026;-83
2023/07/04 10:25:24;;;;;;;2.15;1.30;;;19.80;81.60;;;;;;5014675;28;20025;-83
2023/07/04 10:28:17;;;;;;;2.72;1.10;;;19.80;81.50;;;;;;4996591;28;20018;-81
2023/07/04 10:30:48;;;;;;;3.15;1.20;;;19.80;81.50;;;;;;4996954;28;20104;-83
2023/07/04 10:33:18;;;;;;;1.92;0.95;;;19.90;81.50;;;;;;4996787;28;20037;-82
2023/07/04 10:35:46;;;;;;;2.22;1.20;;;19.90;81.40;;;;;;4993371;28;20030;-80
2023/07/04 10:38:41;;;;;;;2.78;1.40;;;19.90;81.30;;;;;;4980301;28;20030;-83
2023/07/04 10:41:19;;;;;;;2.25;1.20;;;20.00;81.20;;;;;;4996310;28;20495;-85
2023/07/04 10:43:51;;;;;;;1.95;1.17;;;20.00;81.10;;;;;;4996539;28;20030;-81
2023/07/04 10:46:22;;;;;;;3.08;1.60;;;20.00;81.00;;;;;;4996017;28;20029;-81
2023/07/04 10:48:52;;;;;;;3.08;1.20;;;20.00;81.00;;;;;;4996467;28;20052;-82
2023/07/04 10:51:23;;;;;;;2.58;1.40;;;20.00;81.00;;;;;;4996290;28;20029;-82
2023/07/04 10:53:49;;;;;;;2.05;1.23;;;20.00;81.00;;;;;;4996457;28;20025;-82
2023/07/04 10:56:30;;;;;;;2.60;1.30;;;20.00;81.00;;;;;;4995942;28;20557;-80
2023/07/04 10:59:06;;;;;;;2.65;1.30;;;20.00;81.10;;;;;;4996237;28;20418;-83
2023/07/04 11:01:37;;;;;;;2.55;1.30;;;20.00;81.20;;;;;;4996177;28;20096;-81
2023/07/04 11:04:05;;;;;;;;;;;19.90;81.30;;;;;;4996605;28;20030;-80
2023/07/04 11:06:40;;;;;;;2.70;1.30;;;19.90;81.40;;;;;;4995899;28;20011;-83
2023/07/04 11:09:09;;;;;;;2.92;1.45;;;19.80;81.60;;;;;;4994341;28;20512;-82
2023/07/04 11:11:37;;;;;;;2.83;1.33;;;19.80;81.70;;;;;;4992649;28;20081;-82
2023/07/04 11:14:07;;;;;;;2.45;1.40;;;19.80;81.80;;;;;;4992636;28;20030;-83
2023/07/04 11:16:39;;;;;;;2.92;1.35;;;19.80;81.90;;;;;;4992471;28;20034;-80
2023/07/04 11:19:13;;;;;;;3.25;1.20;;;19.80;81.90;;;;;;4993948;28;20022;-81
2023/07/04 11:21:57;;;;;;;2.53;1.10;;;19.80;81.90;;;;;;4992406;28;20038;-83
2023/07/04 11:24:23;;;;;;;2.38;1.30;;;19.80;81.90;;;;;;4995421;28;20025;-82
2023/07/04 11:27:14;;;;;;;3.10;1.50;;;19.80;81.80;;;;;;5013085;28;20092;-82
2023/07/04 11:29:51;;;;;;;1.98;1.25;;;19.80;81.90;;;;;;5013220;28;20018;-82
2023/07/04 11:32:25;;;;;;;2.97;1.50;;;19.80;81.90;;;;;;5007057;23;20042;-80
2023/07/04 11:34:54;;;;;;;2.45;1.35;;;19.80;81.90;;;;;;4987870;28;20727;-84
2023/07/04 11:37:28;;;;;;;1.60;1.20;;;19.80;81.90;;;;;;4971397;28;20018;-83
2023/07/04 11:40:01;;;;;;;1.98;1.20;;;19.80;81.80;;;;;;4995994;28;20146;-80
2023/07/04 11:42:40;;;;;;;3.47;1.50;;;19.90;81.90;;;;;;4984524;28;20153;-83
2023/07/04 11:45:13;;;;;;;2.22;1.17;;;19.80;81.90;;;;;;4980310;28;20373;-82
2023/07/04 11:47:48;;;;;;;2.60;1.27;;;19.80;82.00;;;;;;4989211;28;20399;-83
2023/07/04 11:50:20;;;;;;;3.05;1.20;;;19.80;82.00;;;;;;4978966;28;20483;-80
2023/07/04 11:52:55;;;;;;;2.35;1.30;;;19.80;82.00;;;;;;4978699;28;20594;-82
2023/07/04 11:55:31;;;;;;;2.63;1.10;;;19.80;82.00;;;;;;4975363;28;20026;-83
2023/07/04 11:58:00;;;;;;;3.25;1.30;;;19.80;82.00;;;;;;4994773;28;20022;-83
2023/07/04 12:00:28;;;;;;;2.25;1.30;;;19.80;82.00;;;;;;4978058;28;20026;-83
2023/07/04 12:02:54;;;;;;;2.40;1.40;;;19.80;82.10;;;;;;4995419;28;20526;-81
2023/07/04 12:05:30;;;;;;;1.95;1.13;;;19.80;82.10;;;;;;4973986;28;20062;-83
2023/07/04 12:07:59;;;;;;;2.85;1.30;;;19.80;82.20;;;;;;4957770;28;20018;-81
2023/07/04 12:10:28;;;;;;;2.25;1.30;;;19.80;82.10;;;;;;4958040;28;20023;-82
2023/07/04 12:13:02;;;;;;;2.03;1.27;;;19.80;82.00;;;;;;4975649;28;20023;-80
2023/07/04 12:15:31;;;;;;;2.28;1.17;;;19.80;82.00;;;;;;4957973;28;20038;-83
2023/07/04 12:17:59;;;;;;;1.55;1.10;;;19.80;81.80;;;;;;4992584;28;20022;-82
2023/07/04 12:20:30;;;;;;;3.40;1.50;;;19.90;81.80;;;;;;5014355;28;20455;-81
2023/07/04 12:22:58;;;;;;;1.92;1.10;;;19.90;81.80;;;;;;4995891;28;20053;-83
2023/07/04 12:25:34;;;;;;;2.00;1.25;;;19.90;81.70;;;;;;4976515;28;20029;-82
2023/07/04 12:28:03;;;;;;;2.63;1.30;;;19.90;81.70;;;;;;4976867;28;20081;-83
2023/07/04 12:30:29;;;;;;;2.67;1.40;;;19.90;81.70;;;;;;4989039;28;20096;-83
2023/07/04 12:32:55;;;;;;;2.10;1.30;;;19.80;81.70;;;;;;4992877;28;20096;-81
2023/07/04 12:35:29;;;;;;;2.58;1.23;;;19.80;81.80;;;;;;4976602;28;20318;-82
2023/07/04 12:37:57;;;;;;;2.83;1.30;;;19.80;81.80;;;;;;4976116;28;20506;-81
2023/07/04 12:40:28;;;;;;;1.67;1.10;;;19.80;81.90;;;;;;4987820;28;20022;-82
2023/07/04 12:42:55;;;;;;;2.47;1.20;;;19.80;82.20;;;;;;4956995;28;20033;-82
2023/07/04 12:45:26;;;;;;;2.25;1.40;;;19.70;82.10;;;;;;4956552;28;20586;-83
2023/07/04 12:47:55;;;;;;;2.50;1.20;;;19.80;82.30;;;;;;4974382;28;20403;-82
2023/07/04 12:50:21;;;;;;;2.13;1.20;;;19.70;82.30;;;;;;4998179;28;20116;-83
2023/07/04 12:52:48;;;;;;;2.80;1.30;;;19.70;82.40;;;;;;4986886;28;20033;-81
2023/07/04 12:55:35;;;;;;;2.15;1.30;;;19.70;82.40;;;;;;4988009;28;20055;-82
2023/07/04 12:58:03;;;;;;;2.45;1.30;;;19.70;82.50;;;;;;4955815;28;20030;-82
2023/07/04 13:00:36;;;;;;;2.35;1.17;;;19.70;82.50;;;;;;4956141;28;20027;-82
2023/07/04 13:03:08;;;;;;;2.70;1.33;;;19.70;82.50;;;;;;4956183;28;20027;-83
2023/07/04 13:05:43;;;;;;;2.75;1.40;;;19.70;82.50;;;;;;4956181;28;20134;-83
2023/07/04 13:08:16;;;;;;;3.03;1.60;;;19.70;82.50;;;;;;4974410;28;20019;-82
2023/07/04 13:10:45;;;;;;;2.10;1.33;;;19.70;82.60;;;;;;4959612;28;20034;-82
2023/07/04 13:13:32;;;;;;;2.42;1.35;;;19.60;82.60;;;;;;4977790;28;20026;-83
2023/07/04 13:16:24;;;;;;;1.77;1.17;;;19.60;82.70;;;;;;4959699;28;20085;-81
2023/07/04 13:18:51;;;;;;;3.05;1.40;;;19.60;82.70;;;;;;4976913;28;20022;-81
2023/07/04 13:21:24;;;;;;;2.55;1.20;;;19.60;82.70;;;;;;4959649;28;20599;-80
2023/07/04 13:23:50;;;;;;;1.65;1.10;;;19.60;82.80;;;;;;4974415;28;20034;-82